sensor_id;sensor_type;location;lat;lon;timestamp;P1;durP1;ratioP1;P2;durP2;ratioP2
21426;SDS011;10874;49.452;11.050;2022-08-01T00:00:05;3.90;;;3.30;;
21426;SDS011;10874;49.452;11.050;2022-08-01T00:02:35;3.27;;;2.97;;
21426;SDS011;10874;49.452;11.050;2022-08-01T00:05:02;4.30;;;3.30;;
21426;SDS011;10874;49.452;11.050;2022-08-01T00:07:29;3.73;;;3.43;;
21426;SDS011;10874;49.452;11.050;2022-08-01T00:09:56;3.73;;;3.40;;
21426;SDS011;10874;49.452;11.050;2022-08-01T00:12:23;4.17;;;3.03;;
21426;SDS011;10874;49.452;11.050;2022-08-01T00:14:49;4.20;;;3.27;;
21426;SDS011;10874;49.452;11.050;2022-08-01T00:17:16;3.60;;;3.20;;
21426;SDS011;10874;49.452;11.050;2022-08-01T00:19:43;4.93;;;3.40;;
21426;SDS011;10874;49.452;11.050;2022-08-01T00:22:10;3.77;;;3.47;;
21426;SDS011;10874;49.452;11.050;2022-08-01T00:24:37;5.17;;;3.63;;
21426;SDS011;10874;49.452;11.050;2022-08-01T00:27:04;4.90;;;3.97;;
21426;SDS011;10874;49.452;11.050;2022-08-01T00:29:30;3.77;;;3.13;;
21426;SDS011;10874;49.452;11.050;2022-08-01T00:32:17;2.90;;;2.70;;
21426;SDS011;10874;49.452;11.050;2022-08-01T00:34:44;4.00;;;3.40;;
21426;SDS011;10874;49.452;11.050;2022-08-01T00:37:11;3.97;;;3.60;;
21426;SDS011;10874;49.452;11.050;2022-08-01T00:39:41;3.27;;;2.97;;
21426;SDS011;10874;49.452;11.050;2022-08-01T00:42:09;4.20;;;3.50;;
21426;SDS011;10874;49.452;11.050;2022-08-01T00:44:36;4.63;;;3.13;;
21426;SDS011;10874;49.452;11.050;2022-08-01T00:47:03;3.93;;;3.53;;
21426;SDS011;10874;49.452;11.050;2022-08-01T00:49:30;3.67;;;3.30;;
21426;SDS011;10874;49.452;11.050;2022-08-01T00:51:59;3.50;;;3.20;;
21426;SDS011;10874;49.452;11.050;2022-08-01T00:54:29;5.00;;;3.43;;
21426;SDS011;10874;49.452;11.050;2022-08-01T00:56:56;3.77;;;3.47;;
21426;SDS011;10874;49.452;11.050;2022-08-01T00:59:24;3.63;;;3.30;;
21426;SDS011;10874;49.452;11.050;2022-08-01T01:01:51;3.60;;;3.30;;
21426;SDS011;10874;49.452;11.050;2022-08-01T01:04:27;3.83;;;3.10;;
21426;SDS011;10874;49.452;11.050;2022-08-01T01:14:27;4.20;;;3.80;;
21426;SDS011;10874;49.452;11.050;2022-08-01T01:16:57;4.73;;;3.73;;
21426;SDS011;10874;49.452;11.050;2022-08-01T01:19:25;3.70;;;3.37;;
21426;SDS011;10874;49.452;11.050;2022-08-01T01:21:59;3.87;;;3.57;;
21426;SDS011;10874;49.452;11.050;2022-08-01T01:24:45;3.47;;;3.10;;
21426;SDS011;10874;49.452;11.050;2022-08-01T01:27:21;5.57;;;4.00;;
21426;SDS011;10874;49.452;11.050;2022-08-01T01:29:51;3.73;;;3.43;;
21426;SDS011;10874;49.452;11.050;2022-08-01T01:32:44;3.73;;;3.43;;
21426;SDS011;10874;49.452;11.050;2022-08-01T01:35:16;3.27;;;2.97;;
21426;SDS011;10874;49.452;11.050;2022-08-01T01:37:43;4.03;;;3.60;;
21426;SDS011;10874;49.452;11.050;2022-08-01T01:40:11;3.70;;;3.30;;
21426;SDS011;10874;49.452;11.050;2022-08-01T01:42:40;4.93;;;3.63;;
21426;SDS011;10874;49.452;11.050;2022-08-01T01:45:08;3.70;;;3.40;;
21426;SDS011;10874;49.452;11.050;2022-08-01T01:47:36;4.27;;;3.63;;
21426;SDS011;10874;49.452;11.050;2022-08-01T01:50:04;3.50;;;3.10;;
21426;SDS011;10874;49.452;11.050;2022-08-01T01:52:33;4.07;;;3.53;;
21426;SDS011;10874;49.452;11.050;2022-08-01T01:55:00;4.50;;;3.27;;
21426;SDS011;10874;49.452;11.050;2022-08-01T01:57:28;3.70;;;3.40;;
21426;SDS011;10874;49.452;11.050;2022-08-01T01:59:57;3.67;;;3.20;;
21426;SDS011;10874;49.452;11.050;2022-08-01T02:02:25;4.10;;;3.57;;
21426;SDS011;10874;49.452;11.050;2022-08-01T02:04:52;3.60;;;3.30;;
21426;SDS011;10874;49.452;11.050;2022-08-01T02:07:20;5.17;;;3.80;;
21426;SDS011;10874;49.452;11.050;2022-08-01T02:09:49;4.07;;;3.67;;
21426;SDS011;10874;49.452;11.050;2022-08-01T02:12:16;4.00;;;3.27;;
21426;SDS011;10874;49.452;11.050;2022-08-01T02:14:43;3.80;;;3.37;;
21426;SDS011;10874;49.452;11.050;2022-08-01T02:17:12;6.43;;;3.37;;
21426;SDS011;10874;49.452;11.050;2022-08-01T02:19:39;3.37;;;3.07;;
21426;SDS011;10874;49.452;11.050;2022-08-01T02:27:01;3.40;;;3.10;;
21426;SDS011;10874;49.452;11.050;2022-08-01T02:29:34;3.63;;;2.87;;
21426;SDS011;10874;49.452;11.050;2022-08-01T02:32:04;4.07;;;3.23;;
21426;SDS011;10874;49.452;11.050;2022-08-01T02:34:31;3.80;;;3.43;;
21426;SDS011;10874;49.452;11.050;2022-08-01T02:37:00;4.27;;;3.20;;
21426;SDS011;10874;49.452;11.050;2022-08-01T02:39:27;4.03;;;3.30;;
21426;SDS011;10874;49.452;11.050;2022-08-01T02:41:56;3.73;;;3.37;;
21426;SDS011;10874;49.452;11.050;2022-08-01T02:44:24;3.67;;;3.23;;
21426;SDS011;10874;49.452;11.050;2022-08-01T02:46:54;4.27;;;3.47;;
21426;SDS011;10874;49.452;11.050;2022-08-01T02:49:23;5.30;;;3.90;;
21426;SDS011;10874;49.452;11.050;2022-08-01T02:51:50;3.60;;;3.30;;
21426;SDS011;10874;49.452;11.050;2022-08-01T02:54:20;4.40;;;3.43;;
21426;SDS011;10874;49.452;11.050;2022-08-01T02:56:48;3.40;;;3.10;;
21426;SDS011;10874;49.452;11.050;2022-08-01T02:59:18;3.73;;;3.13;;
21426;SDS011;10874;49.452;11.050;2022-08-01T03:01:48;3.60;;;3.30;;
21426;SDS011;10874;49.452;11.050;2022-08-01T03:04:15;4.77;;;3.40;;
21426;SDS011;10874;49.452;11.050;2022-08-01T03:06:44;3.60;;;3.17;;
21426;SDS011;10874;49.452;11.050;2022-08-01T03:09:11;3.40;;;3.10;;
21426;SDS011;10874;49.452;11.050;2022-08-01T03:11:39;3.10;;;2.77;;
21426;SDS011;10874;49.452;11.050;2022-08-01T03:14:08;4.50;;;3.13;;
21426;SDS011;10874;49.452;11.050;2022-08-01T03:16:36;5.43;;;3.20;;
21426;SDS011;10874;49.452;11.050;2022-08-01T03:19:05;3.50;;;3.20;;
21426;SDS011;10874;49.452;11.050;2022-08-01T03:21:33;3.87;;;3.00;;
21426;SDS011;10874;49.452;11.050;2022-08-01T03:24:01;3.23;;;2.90;;
21426;SDS011;10874;49.452;11.050;2022-08-01T03:26:30;3.30;;;3.00;;
21426;SDS011;10874;49.452;11.050;2022-08-01T03:29:05;3.13;;;2.80;;
21426;SDS011;10874;49.452;11.050;2022-08-01T03:31:36;3.10;;;2.77;;
21426;SDS011;10874;49.452;11.050;2022-08-01T03:34:04;4.23;;;2.80;;
21426;SDS011;10874;49.452;11.050;2022-08-01T03:36:32;4.23;;;2.90;;
21426;SDS011;10874;49.452;11.050;2022-08-01T03:39:00;2.90;;;2.70;;
21426;SDS011;10874;49.452;11.050;2022-08-01T03:41:30;3.00;;;2.70;;
21426;SDS011;10874;49.452;11.050;2022-08-01T03:44:03;2.80;;;2.60;;
21426;SDS011;10874;49.452;11.050;2022-08-01T03:46:36;3.20;;;2.90;;
21426;SDS011;10874;49.452;11.050;2022-08-01T03:49:07;3.73;;;3.30;;
21426;SDS011;10874;49.452;11.050;2022-08-01T03:51:37;5.17;;;3.20;;
21426;SDS011;10874;49.452;11.050;2022-08-01T03:54:05;3.30;;;2.80;;
21426;SDS011;10874;49.452;11.050;2022-08-01T03:56:33;4.27;;;3.00;;
21426;SDS011;10874;49.452;11.050;2022-08-01T03:59:00;3.20;;;2.90;;
21426;SDS011;10874;49.452;11.050;2022-08-01T04:01:27;2.83;;;2.60;;
21426;SDS011;10874;49.452;11.050;2022-08-01T04:03:55;3.60;;;3.27;;
21426;SDS011;10874;49.452;11.050;2022-08-01T04:06:24;3.23;;;3.00;;
21426;SDS011;10874;49.452;11.050;2022-08-01T04:08:51;4.40;;;3.30;;
21426;SDS011;10874;49.452;11.050;2022-08-01T04:11:24;3.20;;;2.90;;
21426;SDS011;10874;49.452;11.050;2022-08-01T04:13:52;3.23;;;3.00;;
21426;SDS011;10874;49.452;11.050;2022-08-01T04:16:21;3.77;;;2.83;;
21426;SDS011;10874;49.452;11.050;2022-08-01T04:18:48;3.17;;;2.93;;
21426;SDS011;10874;49.452;11.050;2022-08-01T04:21:15;3.03;;;2.77;;
21426;SDS011;10874;49.452;11.050;2022-08-01T04:23:44;6.03;;;3.00;;
21426;SDS011;10874;49.452;11.050;2022-08-01T04:26:17;4.60;;;2.80;;
21426;SDS011;10874;49.452;11.050;2022-08-01T04:28:44;3.97;;;2.60;;
21426;SDS011;10874;49.452;11.050;2022-08-01T04:31:12;2.90;;;2.60;;
21426;SDS011;10874;49.452;11.050;2022-08-01T04:33:41;3.03;;;2.73;;
21426;SDS011;10874;49.452;11.050;2022-08-01T04:36:08;3.43;;;2.50;;
21426;SDS011;10874;49.452;11.050;2022-08-01T04:38:37;4.20;;;2.67;;
21426;SDS011;10874;49.452;11.050;2022-08-01T04:41:04;2.77;;;2.57;;
21426;SDS011;10874;49.452;11.050;2022-08-01T04:43:38;3.23;;;2.90;;
21426;SDS011;10874;49.452;11.050;2022-08-01T04:46:06;4.47;;;2.70;;
21426;SDS011;10874;49.452;11.050;2022-08-01T04:48:34;3.43;;;2.60;;
21426;SDS011;10874;49.452;11.050;2022-08-01T04:51:02;3.60;;;2.80;;
21426;SDS011;10874;49.452;11.050;2022-08-01T04:53:29;2.77;;;2.57;;
21426;SDS011;10874;49.452;11.050;2022-08-01T04:55:58;3.20;;;2.90;;
21426;SDS011;10874;49.452;11.050;2022-08-01T04:58:25;3.40;;;2.47;;
21426;SDS011;10874;49.452;11.050;2022-08-01T05:00:52;5.80;;;2.50;;
21426;SDS011;10874;49.452;11.050;2022-08-01T05:03:19;4.13;;;3.03;;
21426;SDS011;10874;49.452;11.050;2022-08-01T05:05:46;4.33;;;3.10;;
21426;SDS011;10874;49.452;11.050;2022-08-01T05:08:13;3.80;;;3.40;;
21426;SDS011;10874;49.452;11.050;2022-08-01T05:10:40;4.50;;;2.97;;
21426;SDS011;10874;49.452;11.050;2022-08-01T05:13:07;4.20;;;3.27;;
21426;SDS011;10874;49.452;11.050;2022-08-01T05:15:34;3.37;;;3.07;;
21426;SDS011;10874;49.452;11.050;2022-08-01T05:18:03;3.53;;;2.73;;
21426;SDS011;10874;49.452;11.050;2022-08-01T05:20:30;4.80;;;2.53;;
21426;SDS011;10874;49.452;11.050;2022-08-01T05:22:57;3.33;;;2.70;;
21426;SDS011;10874;49.452;11.050;2022-08-01T05:25:24;4.07;;;2.80;;
21426;SDS011;10874;49.452;11.050;2022-08-01T05:28:11;3.73;;;2.87;;
21426;SDS011;10874;49.452;11.050;2022-08-01T05:30:45;4.17;;;3.20;;
21426;SDS011;10874;49.452;11.050;2022-08-01T05:33:12;5.97;;;2.87;;
21426;SDS011;10874;49.452;11.050;2022-08-01T05:35:39;4.37;;;2.90;;
21426;SDS011;10874;49.452;11.050;2022-08-01T05:38:15;5.13;;;2.70;;
21426;SDS011;10874;49.452;11.050;2022-08-01T05:40:42;3.73;;;3.27;;
21426;SDS011;10874;49.452;11.050;2022-08-01T05:43:09;5.13;;;3.03;;
21426;SDS011;10874;49.452;11.050;2022-08-01T05:45:35;5.70;;;3.40;;
21426;SDS011;10874;49.452;11.050;2022-08-01T05:48:03;3.40;;;2.67;;
21426;SDS011;10874;49.452;11.050;2022-08-01T05:50:30;4.83;;;2.80;;
21426;SDS011;10874;49.452;11.050;2022-08-01T05:52:56;4.77;;;3.30;;
21426;SDS011;10874;49.452;11.050;2022-08-01T05:55:23;4.43;;;2.93;;
21426;SDS011;10874;49.452;11.050;2022-08-01T05:57:50;3.20;;;2.80;;
21426;SDS011;10874;49.452;11.050;2022-08-01T06:00:17;5.23;;;2.87;;
21426;SDS011;10874;49.452;11.050;2022-08-01T06:02:44;3.47;;;2.77;;
21426;SDS011;10874;49.452;11.050;2022-08-01T06:05:11;3.20;;;2.87;;
21426;SDS011;10874;49.452;11.050;2022-08-01T06:07:39;4.13;;;2.50;;
21426;SDS011;10874;49.452;11.050;2022-08-01T06:10:07;3.33;;;2.53;;
21426;SDS011;10874;49.452;11.050;2022-08-01T06:12:34;2.83;;;2.63;;
21426;SDS011;10874;49.452;11.050;2022-08-01T06:15:02;2.97;;;2.33;;
21426;SDS011;10874;49.452;11.050;2022-08-01T06:17:29;3.03;;;2.40;;
21426;SDS011;10874;49.452;11.050;2022-08-01T06:19:56;3.00;;;2.63;;
21426;SDS011;10874;49.452;11.050;2022-08-01T06:22:23;2.30;;;2.10;;
21426;SDS011;10874;49.452;11.050;2022-08-01T06:24:51;3.87;;;2.20;;
21426;SDS011;10874;49.452;11.050;2022-08-01T06:27:18;2.80;;;2.40;;
21426;SDS011;10874;49.452;11.050;2022-08-01T06:29:48;2.50;;;2.27;;
21426;SDS011;10874;49.452;11.050;2022-08-01T06:32:22;3.00;;;2.07;;
21426;SDS011;10874;49.452;11.050;2022-08-01T06:34:54;5.97;;;2.03;;
21426;SDS011;10874;49.452;11.050;2022-08-01T06:37:21;3.03;;;2.33;;
21426;SDS011;10874;49.452;11.050;2022-08-01T06:39:49;3.27;;;2.23;;
21426;SDS011;10874;49.452;11.050;2022-08-01T06:42:16;2.83;;;1.97;;
21426;SDS011;10874;49.452;11.050;2022-08-01T06:44:43;2.20;;;2.00;;
21426;SDS011;10874;49.452;11.050;2022-08-01T06:47:10;5.13;;;2.40;;
21426;SDS011;10874;49.452;11.050;2022-08-01T06:49:37;2.83;;;1.90;;
21426;SDS011;10874;49.452;11.050;2022-08-01T06:52:04;2.67;;;1.97;;
21426;SDS011;10874;49.452;11.050;2022-08-01T06:54:31;2.73;;;2.17;;
21426;SDS011;10874;49.452;11.050;2022-08-01T06:56:58;3.43;;;2.13;;
21426;SDS011;10874;49.452;11.050;2022-08-01T06:59:25;5.53;;;2.10;;
21426;SDS011;10874;49.452;11.050;2022-08-01T07:01:52;3.40;;;2.40;;
21426;SDS011;10874;49.452;11.050;2022-08-01T07:04:19;3.53;;;1.97;;
21426;SDS011;10874;49.452;11.050;2022-08-01T07:06:46;2.80;;;2.00;;
21426;SDS011;10874;49.452;11.050;2022-08-01T07:09:13;3.13;;;2.40;;
21426;SDS011;10874;49.452;11.050;2022-08-01T07:11:40;3.20;;;2.40;;
21426;SDS011;10874;49.452;11.050;2022-08-01T07:14:07;3.60;;;2.37;;
21426;SDS011;10874;49.452;11.050;2022-08-01T07:16:34;2.27;;;2.07;;
21426;SDS011;10874;49.452;11.050;2022-08-01T07:19:01;2.13;;;1.73;;
21426;SDS011;10874;49.452;11.050;2022-08-01T07:21:28;3.40;;;2.17;;
21426;SDS011;10874;49.452;11.050;2022-08-01T07:24:07;3.20;;;2.17;;
21426;SDS011;10874;49.452;11.050;2022-08-01T07:26:43;2.47;;;1.90;;
21426;SDS011;10874;49.452;11.050;2022-08-01T07:29:23;2.97;;;2.20;;
21426;SDS011;10874;49.452;11.050;2022-08-01T07:31:51;2.20;;;2.00;;
21426;SDS011;10874;49.452;11.050;2022-08-01T07:34:19;3.43;;;2.03;;
21426;SDS011;10874;49.452;11.050;2022-08-01T07:36:46;2.60;;;1.90;;
21426;SDS011;10874;49.452;11.050;2022-08-01T07:39:13;2.00;;;1.80;;
21426;SDS011;10874;49.452;11.050;2022-08-01T07:41:40;2.13;;;1.90;;
21426;SDS011;10874;49.452;11.050;2022-08-01T07:44:27;2.50;;;1.77;;
21426;SDS011;10874;49.452;11.050;2022-08-01T07:46:55;2.63;;;2.00;;
21426;SDS011;10874;49.452;11.050;2022-08-01T07:49:22;2.20;;;2.00;;
21426;SDS011;10874;49.452;11.050;2022-08-01T07:51:49;2.47;;;1.70;;
21426;SDS011;10874;49.452;11.050;2022-08-01T07:54:30;2.17;;;1.97;;
21426;SDS011;10874;49.452;11.050;2022-08-01T07:57:00;2.60;;;1.70;;
21426;SDS011;10874;49.452;11.050;2022-08-01T07:59:27;3.13;;;1.50;;
21426;SDS011;10874;49.452;11.050;2022-08-01T08:01:54;2.87;;;1.90;;
21426;SDS011;10874;49.452;11.050;2022-08-01T08:04:21;2.23;;;1.70;;
21426;SDS011;10874;49.452;11.050;2022-08-01T08:06:48;2.97;;;1.70;;
21426;SDS011;10874;49.452;11.050;2022-08-01T08:09:15;1.87;;;1.70;;
21426;SDS011;10874;49.452;11.050;2022-08-01T08:11:43;2.87;;;1.60;;
21426;SDS011;10874;49.452;11.050;2022-08-01T08:14:14;7.37;;;2.43;;
21426;SDS011;10874;49.452;11.050;2022-08-01T08:16:41;4.33;;;1.70;;
21426;SDS011;10874;49.452;11.050;2022-08-01T08:19:08;2.17;;;1.80;;
21426;SDS011;10874;49.452;11.050;2022-08-01T08:21:35;2.23;;;1.77;;
21426;SDS011;10874;49.452;11.050;2022-08-01T08:24:03;1.90;;;1.80;;
21426;SDS011;10874;49.452;11.050;2022-08-01T08:26:55;3.40;;;2.00;;
21426;SDS011;10874;49.452;11.050;2022-08-01T08:29:22;2.30;;;2.10;;
21426;SDS011;10874;49.452;11.050;2022-08-01T08:31:49;2.20;;;1.90;;
21426;SDS011;10874;49.452;11.050;2022-08-01T08:34:19;2.40;;;1.90;;
21426;SDS011;10874;49.452;11.050;2022-08-01T08:36:46;2.73;;;2.07;;
21426;SDS011;10874;49.452;11.050;2022-08-01T08:39:15;2.00;;;1.80;;
21426;SDS011;10874;49.452;11.050;2022-08-01T08:41:45;2.23;;;1.93;;
21426;SDS011;10874;49.452;11.050;2022-08-01T08:44:15;2.93;;;1.80;;
21426;SDS011;10874;49.452;11.050;2022-08-01T08:46:44;2.17;;;2.03;;
21426;SDS011;10874;49.452;11.050;2022-08-01T08:49:13;2.33;;;1.50;;
21426;SDS011;10874;49.452;11.050;2022-08-01T08:51:42;1.90;;;1.80;;
21426;SDS011;10874;49.452;11.050;2022-08-01T08:54:11;3.37;;;1.80;;
21426;SDS011;10874;49.452;11.050;2022-08-01T08:56:39;2.33;;;1.77;;
21426;SDS011;10874;49.452;11.050;2022-08-01T08:59:06;3.93;;;1.80;;
21426;SDS011;10874;49.452;11.050;2022-08-01T09:01:33;3.37;;;1.70;;
21426;SDS011;10874;49.452;11.050;2022-08-01T09:04:04;1.83;;;1.47;;
21426;SDS011;10874;49.452;11.050;2022-08-01T09:06:31;1.47;;;1.37;;
21426;SDS011;10874;49.452;11.050;2022-08-01T09:08:59;3.03;;;1.57;;
21426;SDS011;10874;49.452;11.050;2022-08-01T09:11:26;2.20;;;1.40;;
21426;SDS011;10874;49.452;11.050;2022-08-01T09:16:32;1.60;;;1.50;;
21426;SDS011;10874;49.452;11.050;2022-08-01T09:19:09;2.70;;;1.80;;
21426;SDS011;10874;49.452;11.050;2022-08-01T09:21:57;1.60;;;1.50;;
21426;SDS011;10874;49.452;11.050;2022-08-01T09:24:25;2.93;;;1.60;;
21426;SDS011;10874;49.452;11.050;2022-08-01T09:26:56;1.73;;;1.40;;
21426;SDS011;10874;49.452;11.050;2022-08-01T09:29:26;1.77;;;1.60;;
21426;SDS011;10874;49.452;11.050;2022-08-01T09:32:07;3.07;;;1.90;;
21426;SDS011;10874;49.452;11.050;2022-08-01T09:34:42;1.77;;;1.60;;
21426;SDS011;10874;49.452;11.050;2022-08-01T09:37:09;1.50;;;1.40;;
21426;SDS011;10874;49.452;11.050;2022-08-01T09:39:37;1.73;;;1.50;;
21426;SDS011;10874;49.452;11.050;2022-08-01T09:42:19;1.30;;;1.20;;
21426;SDS011;10874;49.452;11.050;2022-08-01T09:44:54;1.80;;;1.70;;
21426;SDS011;10874;49.452;11.050;2022-08-01T09:47:21;1.63;;;1.53;;
21426;SDS011;10874;49.452;11.050;2022-08-01T09:49:54;3.13;;;1.60;;
21426;SDS011;10874;49.452;11.050;2022-08-01T09:52:23;2.27;;;1.40;;
21426;SDS011;10874;49.452;11.050;2022-08-01T09:54:54;1.93;;;1.30;;
21426;SDS011;10874;49.452;11.050;2022-08-01T09:57:22;1.80;;;1.40;;
21426;SDS011;10874;49.452;11.050;2022-08-01T09:59:50;2.07;;;1.60;;
21426;SDS011;10874;49.452;11.050;2022-08-01T10:02:31;1.70;;;1.40;;
21426;SDS011;10874;49.452;11.050;2022-08-01T10:05:00;2.23;;;1.37;;
21426;SDS011;10874;49.452;11.050;2022-08-01T10:07:29;1.33;;;1.20;;
21426;SDS011;10874;49.452;11.050;2022-08-01T10:10:14;1.60;;;1.33;;
21426;SDS011;10874;49.452;11.050;2022-08-01T10:12:41;2.27;;;1.27;;
21426;SDS011;10874;49.452;11.050;2022-08-01T10:15:12;1.40;;;1.30;;
21426;SDS011;10874;49.452;11.050;2022-08-01T10:17:41;1.60;;;1.23;;
21426;SDS011;10874;49.452;11.050;2022-08-01T10:20:16;1.23;;;1.10;;
21426;SDS011;10874;49.452;11.050;2022-08-01T10:23:01;1.30;;;1.20;;
21426;SDS011;10874;49.452;11.050;2022-08-01T10:25:35;2.10;;;1.30;;
21426;SDS011;10874;49.452;11.050;2022-08-01T10:28:16;1.00;;;0.90;;
21426;SDS011;10874;49.452;11.050;2022-08-01T10:30:47;1.20;;;1.00;;
21426;SDS011;10874;49.452;11.050;2022-08-01T10:33:15;2.60;;;1.23;;
21426;SDS011;10874;49.452;11.050;2022-08-01T10:36:02;1.57;;;1.10;;
21426;SDS011;10874;49.452;11.050;2022-08-01T10:38:34;1.80;;;1.27;;
21426;SDS011;10874;49.452;11.050;2022-08-01T10:41:03;1.73;;;1.17;;
21426;SDS011;10874;49.452;11.050;2022-08-01T10:43:32;2.70;;;1.47;;
21426;SDS011;10874;49.452;11.050;2022-08-01T10:46:02;2.55;;;1.33;;
21426;SDS011;10874;49.452;11.050;2022-08-01T10:48:31;1.02;;;1.02;;
21426;SDS011;10874;49.452;11.050;2022-08-01T10:51:02;1.23;;;1.13;;
21426;SDS011;10874;49.452;11.050;2022-08-01T10:53:46;1.15;;;1.05;;
21426;SDS011;10874;49.452;11.050;2022-08-01T10:56:14;1.98;;;1.50;;
21426;SDS011;10874;49.452;11.050;2022-08-01T10:58:43;1.90;;;1.60;;
21426;SDS011;10874;49.452;11.050;2022-08-01T11:01:21;2.95;;;1.40;;
21426;SDS011;10874;49.452;11.050;2022-08-01T11:04:02;1.40;;;1.20;;
21426;SDS011;10874;49.452;11.050;2022-08-01T11:09:04;1.05;;;0.93;;
21426;SDS011;10874;49.452;11.050;2022-08-01T11:11:31;1.90;;;1.10;;
21426;SDS011;10874;49.452;11.050;2022-08-01T11:14:03;0.80;;;0.80;;
21426;SDS011;10874;49.452;11.050;2022-08-01T11:16:35;1.98;;;0.90;;
21426;SDS011;10874;49.452;11.050;2022-08-01T11:19:03;1.50;;;1.40;;
21426;SDS011;10874;49.452;11.050;2022-08-01T11:32:34;4.10;;;1.35;;
21426;SDS011;10874;49.452;11.050;2022-08-01T11:35:21;1.23;;;1.20;;
21426;SDS011;10874;49.452;11.050;2022-08-01T11:37:50;2.45;;;1.42;;
21426;SDS011;10874;49.452;11.050;2022-08-01T11:40:28;1.35;;;1.10;;
21426;SDS011;10874;49.452;11.050;2022-08-01T11:43:15;1.45;;;1.33;;
21426;SDS011;10874;49.452;11.050;2022-08-01T11:45:53;1.30;;;1.20;;
21426;SDS011;10874;49.452;11.050;2022-08-01T11:48:22;1.80;;;1.10;;
21426;SDS011;10874;49.452;11.050;2022-08-01T11:50:54;1.35;;;1.20;;
21426;SDS011;10874;49.452;11.050;2022-08-01T11:53:21;0.90;;;0.90;;
21426;SDS011;10874;49.452;11.050;2022-08-01T11:55:53;1.98;;;0.93;;
21426;SDS011;10874;49.452;11.050;2022-08-01T11:58:24;1.20;;;1.10;;
21426;SDS011;10874;49.452;11.050;2022-08-01T12:00:57;1.75;;;1.25;;
21426;SDS011;10874;49.452;11.050;2022-08-01T12:03:25;1.63;;;1.25;;
21426;SDS011;10874;49.452;11.050;2022-08-01T12:05:59;1.40;;;1.30;;
21426;SDS011;10874;49.452;11.050;2022-08-01T12:08:30;1.80;;;1.33;;
21426;SDS011;10874;49.452;11.050;2022-08-01T12:11:00;1.58;;;1.33;;
21426;SDS011;10874;49.452;11.050;2022-08-01T12:13:28;1.73;;;1.48;;
21426;SDS011;10874;49.452;11.050;2022-08-01T12:16:09;2.30;;;1.30;;
21426;SDS011;10874;49.452;11.050;2022-08-01T12:18:42;1.50;;;1.40;;
21426;SDS011;10874;49.452;11.050;2022-08-01T12:21:10;2.97;;;1.73;;
21426;SDS011;10874;49.452;11.050;2022-08-01T12:23:36;2.15;;;1.42;;
21426;SDS011;10874;49.452;11.050;2022-08-01T12:26:03;1.60;;;1.50;;
21426;SDS011;10874;49.452;11.050;2022-08-01T12:28:38;1.48;;;1.38;;
21426;SDS011;10874;49.452;11.050;2022-08-01T12:31:05;1.92;;;1.40;;
21426;SDS011;10874;49.452;11.050;2022-08-01T12:33:31;1.50;;;1.40;;
21426;SDS011;10874;49.452;11.050;2022-08-01T12:36:00;1.50;;;1.40;;
21426;SDS011;10874;49.452;11.050;2022-08-01T12:38:27;1.50;;;1.40;;
21426;SDS011;10874;49.452;11.050;2022-08-01T12:40:56;1.10;;;1.10;;
21426;SDS011;10874;49.452;11.050;2022-08-01T12:43:23;1.20;;;1.10;;
21426;SDS011;10874;49.452;11.050;2022-08-01T12:45:58;1.17;;;1.10;;
21426;SDS011;10874;49.452;11.050;2022-08-01T12:48:26;2.45;;;1.30;;
21426;SDS011;10874;49.452;11.050;2022-08-01T12:50:53;2.65;;;1.13;;
21426;SDS011;10874;49.452;11.050;2022-08-01T12:53:23;1.92;;;1.83;;
21426;SDS011;10874;49.452;11.050;2022-08-01T12:55:53;1.23;;;1.23;;
21426;SDS011;10874;49.452;11.050;2022-08-01T12:58:32;1.52;;;1.40;;
21426;SDS011;10874;49.452;11.050;2022-08-01T13:01:03;1.67;;;1.20;;
21426;SDS011;10874;49.452;11.050;2022-08-01T13:03:30;1.40;;;1.20;;
21426;SDS011;10874;49.452;11.050;2022-08-01T13:05:57;2.00;;;1.38;;
21426;SDS011;10874;49.452;11.050;2022-08-01T13:08:29;2.55;;;1.02;;
21426;SDS011;10874;49.452;11.050;2022-08-01T13:11:03;1.33;;;1.13;;
21426;SDS011;10874;49.452;11.050;2022-08-01T13:13:38;1.50;;;1.40;;
21426;SDS011;10874;49.452;11.050;2022-08-01T13:16:06;2.42;;;1.42;;
21426;SDS011;10874;49.452;11.050;2022-08-01T13:18:35;1.60;;;1.50;;
21426;SDS011;10874;49.452;11.050;2022-08-01T13:23:35;3.38;;;1.42;;
21426;SDS011;10874;49.452;11.050;2022-08-01T13:26:36;1.98;;;1.70;;
21426;SDS011;10874;49.452;11.050;2022-08-01T13:29:04;2.10;;;1.67;;
21426;SDS011;10874;49.452;11.050;2022-08-01T13:31:32;1.90;;;1.80;;
21426;SDS011;10874;49.452;11.050;2022-08-01T13:34:00;1.70;;;1.43;;
21426;SDS011;10874;49.452;11.050;2022-08-01T13:36:27;1.67;;;1.23;;
21426;SDS011;10874;49.452;11.050;2022-08-01T13:38:55;1.80;;;1.70;;
21426;SDS011;10874;49.452;11.050;2022-08-01T13:41:40;2.27;;;1.83;;
21426;SDS011;10874;49.452;11.050;2022-08-01T13:44:07;1.60;;;1.50;;
21426;SDS011;10874;49.452;11.050;2022-08-01T13:46:36;1.47;;;1.37;;
21426;SDS011;10874;49.452;11.050;2022-08-01T13:49:02;2.37;;;1.50;;
21426;SDS011;10874;49.452;11.050;2022-08-01T13:51:42;1.63;;;1.53;;
21426;SDS011;10874;49.452;11.050;2022-08-01T13:54:09;2.77;;;1.80;;
21426;SDS011;10874;49.452;11.050;2022-08-01T13:56:36;1.50;;;1.40;;
21426;SDS011;10874;49.452;11.050;2022-08-01T13:59:02;2.07;;;1.73;;
21426;SDS011;10874;49.452;11.050;2022-08-01T14:01:29;2.03;;;1.83;;
21426;SDS011;10874;49.452;11.050;2022-08-01T14:04:00;1.83;;;1.70;;
21426;SDS011;10874;49.452;11.050;2022-08-01T14:06:27;1.93;;;1.70;;
21426;SDS011;10874;49.452;11.050;2022-08-01T14:08:54;1.60;;;1.50;;
21426;SDS011;10874;49.452;11.050;2022-08-01T14:11:20;1.83;;;1.30;;
21426;SDS011;10874;49.452;11.050;2022-08-01T14:13:47;1.60;;;1.17;;
21426;SDS011;10874;49.452;11.050;2022-08-01T14:16:15;1.40;;;1.27;;
21426;SDS011;10874;49.452;11.050;2022-08-01T14:18:42;1.20;;;1.00;;
21426;SDS011;10874;49.452;11.050;2022-08-01T14:21:10;1.33;;;1.23;;
21426;SDS011;10874;49.452;11.050;2022-08-01T14:23:37;1.47;;;1.20;;
21426;SDS011;10874;49.452;11.050;2022-08-01T14:26:04;1.70;;;1.40;;
21426;SDS011;10874;49.452;11.050;2022-08-01T14:28:38;1.63;;;1.53;;
21426;SDS011;10874;49.452;11.050;2022-08-01T14:31:05;1.83;;;1.10;;
21426;SDS011;10874;49.452;11.050;2022-08-01T14:33:36;2.03;;;1.20;;
21426;SDS011;10874;49.452;11.050;2022-08-01T14:36:03;2.27;;;1.50;;
21426;SDS011;10874;49.452;11.050;2022-08-01T14:38:49;3.17;;;2.37;;
21426;SDS011;10874;49.452;11.050;2022-08-01T14:41:16;1.90;;;1.20;;
21426;SDS011;10874;49.452;11.050;2022-08-01T14:43:43;1.17;;;1.07;;
21426;SDS011;10874;49.452;11.050;2022-08-01T14:46:11;1.40;;;1.30;;
21426;SDS011;10874;49.452;11.050;2022-08-01T14:48:39;2.65;;;1.20;;
21426;SDS011;10874;49.452;11.050;2022-08-01T14:51:06;1.20;;;1.10;;
21426;SDS011;10874;49.452;11.050;2022-08-01T14:53:34;1.95;;;1.10;;
21426;SDS011;10874;49.452;11.050;2022-08-01T14:56:04;1.83;;;1.20;;
21426;SDS011;10874;49.452;11.050;2022-08-01T14:58:31;1.38;;;1.27;;
21426;SDS011;10874;49.452;11.050;2022-08-01T15:00:59;0.85;;;0.70;;
21426;SDS011;10874;49.452;11.050;2022-08-01T15:03:26;1.10;;;0.98;;
21426;SDS011;10874;49.452;11.050;2022-08-01T15:05:52;1.10;;;1.00;;
21426;SDS011;10874;49.452;11.050;2022-08-01T15:08:19;2.10;;;1.30;;
21426;SDS011;10874;49.452;11.050;2022-08-01T15:10:46;1.13;;;1.00;;
21426;SDS011;10874;49.452;11.050;2022-08-01T15:13:13;1.98;;;0.90;;
21426;SDS011;10874;49.452;11.050;2022-08-01T15:15:40;1.17;;;0.98;;
21426;SDS011;10874;49.452;11.050;2022-08-01T15:18:07;1.60;;;1.15;;